Latest Conditions
At L.F.Wade Int. Airport
Recorded at 1:55 am
Few Clouds
Temp.: 
21°C/71°F
Humidity: 
86%
Wind: 
Calm
UV Index: 
0
Island Observations
 
Observations
Saturday, May 26, 2018

Observations are in local time and taken at least once an hour, or upon the start and end of specified events such as showers and thunderstorms.

Time Sky / Weather Wind Speed/Gusts Temp. R.H. Pressure
     knots (mph)  °C (°F)  %  mb / "Hg
 01:55 Few Clouds  Calm 21(71) 86 1020 / 30.13
 00:55 Few Clouds  VRB 1/0 (1/0) 22(71) 79 1021 / 30.14
 23:55 Few Clouds  VRB 2/0 (2/0) 22(71) 78 1021 / 30.14
 22:55 Few Clouds  SSE 3/0 (3/0) 23(74) 72 1021 / 30.14
 21:55 Few Clouds  SSE 3/0 (3/0) 23(74) 69 1020 / 30.13
 20:55 Few Clouds  ESE 4/0 (5/0) 23(74) 72 1020 / 30.12
 19:55 Few Clouds  ESE 4/0 (5/0) 24(75) 68 1020 / 30.11
 18:55 Few Clouds  E 5/0 (6/0) 24(76) 64 1019 / 30.10
 17:55 Few Clouds  ENE 5/0 (6/0) 25(77) 64 1019 / 30.10
 16:55 Few Clouds  E 6/0 (7/0) 24(76) 65 1020 / 30.11
 15:55 Partly Cloudy  NE 7/0 (8/0) 25(77) 66 1020 / 30.12
 14:55 Partly Cloudy  ENE 7/0 (8/0) 26(79) 68 1020 / 30.12
 13:55 Partly Cloudy  ENE 8/0 (9/0) 25(77) 70 1021 / 30.14
 12:55 Partly Cloudy  NNE 9/0 (10/0) 25(77) 70 1021 / 30.15
 11:55 Partly Cloudy Showers NNE 10/0 (12/0) 25(77) 71 1021 / 30.16
 10:55 Partly Cloudy  NNE 9/0 (10/0) 25(77) 69 1021 / 30.15
 09:55 Mostly Cloudy  NNE 8/0 (9/0) 24(75) 71 1021 / 30.14
 08:55 Partly Cloudy  N 6/0 (7/0) 24(76) 69 1020 / 30.13
 07:55 Partly Cloudy  N 6/0 (7/0) 24(75) 72 1020 / 30.12
 06:55 Mostly Cloudy  NNE 5/0 (6/0) 23(73) 76 1019 / 30.10
 05:55 Partly Cloudy  NNE 7/0 (8/0) 22(72) 80 1019 / 30.08
 04:55 Partly Cloudy  NNE 8/0 (9/0) 23(73) 81 1018 / 30.07
 03:55 Partly Cloudy  N 4/0 (5/0) 23(74) 78 1018 / 30.07
 02:55 Few Clouds  N 5/0 (6/0) 23(74) 76 1018 / 30.07
 01:55 Partly Cloudy  N 6/0 (7/0) 23(74) 78 1019 / 30.08
 00:55 Partly Cloudy  NW 8/0 (9/0) 24(74) 83 1019 / 30.09
 23:55 Mostly Cloudy  NW 8/0 (9/0) 24(74) 82 1019 / 30.09
 22:55 Mostly Cloudy  NW 9/0 (10/0) 24(75) 83 1019 / 30.09
 21:55 Mostly Cloudy  WNW 11/0 (13/0) 24(74) 81 1019 / 30.09
 20:55 Mostly Cloudy  WNW 10/0 (12/0) 24(75) 79 1019 / 30.08
 19:55 Mostly Cloudy  NW 8/0 (9/0) 24(74) 83 1018 / 30.07
 19:35 Mostly Cloudy Showers NNW 9/0 (10/0) 23(74) 80 1018 / 30.07
 19:20 Mostly Cloudy Showers NW 16/0 (18/0) 23(74) 87 1018 / 30.07
 18:55 Mostly Cloudy Showers WNW 10/0 (12/0) 24(75) 84 1018 / 30.07
 18:09 Mostly Cloudy Showers NW 11/0 (13/0) 23(73) 90 1018 / 30.06
 17:55 Mostly Cloudy Showers NW 14/0 (16/0) 23(73) 89 1018 / 30.06
 17:45 Mostly Cloudy Showers WNW 14/0 (16/0) 23(74) 85 1018 / 30.06
 17:29 Overcast Showers W 16/0 (18/0) 25(77) 81 1018 / 30.06
 16:55 Overcast  W 17/0 (20/0) 25(77) 79 1018 / 30.05
 15:55 Overcast  W 16/0 (18/0) 26(78) 80 1018 / 30.07
 15:38 Overcast  W 15/0 (17/0) 26(78) 79 1018 / 30.07
 14:55 Overcast  W 16/0 (18/0) 25(77) 80 1019 / 30.08
 13:55 Mostly Cloudy  WSW 16/0 (18/0) 26(78) 77 1019 / 30.08
 12:55 Mostly Cloudy  WSW 13/0 (15/0) 25(77) 79 1019 / 30.09
 11:55 Mostly Cloudy  W 13/0 (15/0) 25(77) 81 1019 / 30.10
 10:55 Overcast  WSW 12/0 (14/0) 24(75) 86 1019 / 30.10
 10:14 Overcast  SW 9/0 (10/0) 23(74) 90 1020 / 30.11
 09:55 Overcast Showers WSW 7/0 (8/0) 22(71) 86 1020 / 30.11
 09:30 Overcast Showers NW 7/0 (8/0) 22(71) 96 1020 / 30.12
 09:23 Overcast Showers WNW 11/0 (13/0) 22(71) 94 1020 / 30.12
 09:13 Overcast Showers SW 13/0 (15/0) 22(71) 91 1020 / 30.12
 08:55 Overcast Showers SW 13/0 (15/0) 22(71) 92 1020 / 30.12
 08:37 Overcast Showers SW 16/0 (18/0) 21(69) 97 1020 / 30.12
 08:27 Overcast Showers WSW 16/0 (18/0) 21(70) 97 1020 / 30.12
 08:24 Overcast Showers WSW 16/0 (18/0) 21(70) 96 1020 / 30.12
 08:18 Overcast Showers WSW 16/0 (18/0) 22(71) 94 1020 / 30.12
 08:00 Overcast Showers WSW 12/0 (14/0) 22(71) 90 1020 / 30.12
 07:55 Overcast Showers W 10/0 (12/0) 21(70) 93 1020 / 30.12
 07:38 Overcast Showers W 13/0 (15/0) 21(70) 93 1020 / 30.11
 07:28 Overcast Showers WSW 18/0 (21/0) 22(71) 92 1020 / 30.12
 06:55 Overcast Showers WSW 16/0 (18/0) 21(70) 92 1020 / 30.11
 06:40 Overcast Showers WSW 19/0 (22/0) 21(69) 96 1020 / 30.11
 06:34 Overcast Showers WSW 21/0 (24/0) 21(69) 96 1020 / 30.11
 06:23 Overcast Showers WSW 12/29 (14/33) 21(70) 95 1020 / 30.11
 06:13 Overcast Showers WSW 8/0 (9/0) 22(72) 94 1019 / 30.10
 05:55 Overcast Showers W 9/0 (10/0) 22(72) 90 1019 / 30.10
 05:08 Overcast Showers W 11/0 (13/0) 22(71) 91 1019 / 30.10
 04:55 Overcast Showers W 18/0 (21/0) 21(70) 97 1020 / 30.11
 04:46 Overcast Showers W 20/0 (23/0) 21(69) 96 1020 / 30.11
 04:35 Overcast Showers WSW 14/25 (16/29) 21(70) 95 1020 / 30.11
 04:03 Overcast Showers WSW 17/0 (20/0) 22(71) 97 1020 / 30.11
 03:55 Overcast Showers SW 12/0 (14/0) 22(72) 93 1019 / 30.10
 03:25 Overcast Showers WSW 12/0 (14/0) 23(74) 86 1020 / 30.11
 03:09 Mostly Cloudy Showers WSW 13/0 (15/0) 24(76) 81 1020 / 30.12
 02:55 Mostly Cloudy Showers SW 12/0 (14/0) 24(76) 79 1020 / 30.12
 01:55 Mostly Cloudy  SW 13/0 (15/0) 24(76) 80 1021 / 30.14
 00:55 Mostly Cloudy  SW 12/0 (14/0) 24(76) 79 1021 / 30.16
 23:55 Mostly Cloudy  SW 11/0 (13/0) 24(75) 82 1022 / 30.17
 22:55 Mostly Cloudy  SW 12/0 (14/0) 24(76) 80 1022 / 30.18
 21:55 Mostly Cloudy  SW 13/0 (15/0) 24(76) 78 1022 / 30.19
 20:55 Mostly Cloudy  SW 12/0 (14/0) 25(76) 75 1022 / 30.19
 19:55 Mostly Cloudy  SW 14/0 (16/0) 25(77) 69 1022 / 30.18
 18:55 Mostly Cloudy  SSW 14/0 (16/0) 26(78) 64 1022 / 30.18
 17:55 Mostly Cloudy  SW 16/0 (18/0) 26(78) 71 1022 / 30.18
 16:55 Mostly Cloudy  SW 16/0 (18/0) 26(79) 66 1022 / 30.19
 16:07 Mostly Cloudy Showers SW 16/0 (18/0) 27(80) 64 1022 / 30.19
 15:55 Mostly Cloudy Showers SSW 17/0 (20/0) 26(79) 68 1023 / 30.20
 14:55 Mostly Cloudy  SSW 15/0 (17/0) 26(79) 66 1023 / 30.21
 13:55 Mostly Cloudy  SSW 16/0 (18/0) 26(79) 64 1023 / 30.22
 12:55 Mostly Cloudy  SSW 15/0 (17/0) 26(78) 67 1024 / 30.23
 11:55 Mostly Cloudy  SSW 14/0 (16/0) 27(80) 63 1024 / 30.24
 10:55 Mostly Cloudy  SSW 13/0 (15/0) 26(78) 69 1024 / 30.23
 09:55 Mostly Cloudy  SSW 12/0 (14/0) 26(79) 68 1024 / 30.23
 08:55 Mostly Cloudy  SSW 11/0 (13/0) 25(77) 70 1024 / 30.23
 07:55 Mostly Cloudy  SW 8/0 (9/0) 24(76) 75 1024 / 30.23
 06:55 Mostly Cloudy  SW 8/0 (9/0) 23(74) 79 1023 / 30.22
 05:55 Mostly Cloudy  SW 8/0 (9/0) 23(73) 81 1023 / 30.22
 04:55 Mostly Cloudy  SW 7/0 (8/0) 23(73) 81 1023 / 30.21
 03:55 Mostly Cloudy  SW 6/0 (7/0) 22(72) 81 1023 / 30.21
 02:55 Mostly Cloudy  SW 7/0 (8/0) 23(73) 80 1023 / 30.22
Island AWOS